Southern Ontario METAR Reports

CYSN - St.Catharines
Updated: 08/23/2019 7:00am
Few Clouds
Few Clouds
 Wind from NNW
Wind: NNW 9 km/h
Temperature: 16°C
Dew Point: 15°C
Humidity: 94%
Barometer: 1018.3 hPa
Clouds: Few Clouds
Visibility: 24 km
Cloud details: Few Clouds 3048 m
2019/08/23 11:00 CYSN 231100Z 34005KT 15SM FEW100 16/15 A3007 RMK AC1 SLP185
CYHM - Hamilton
Updated: 08/23/2019 7:00am
Few Clouds
Few Clouds
 Wind from NNW
Wind: NNW 11 km/h
Temperature: 12°C
Dew Point: 11°C
Humidity: 94%
Barometer: 1019.3 hPa
Clouds: Few Clouds
Visibility: 24 km
Cloud details: Few Clouds 762 m
Few Clouds 1372 m
Few Clouds 7620 m
2019/08/23 11:00 CYHM 231100Z 34006KT 15SM FEW025 FEW045 FEW250 12/11 A3010 RMK CU1SC1CI1 CU TR SC TR CI TR SLP194
 
CYYZ - Toronto
Updated: 08/23/2019 7:00am
Few Clouds
Few Clouds
 Wind from NNE
Wind: NNE 9 km/h
Temperature: 14°C
Dew Point: 11°C
Humidity: 82%
Barometer: 1019 hPa
Clouds: Few Clouds
Visibility: 24 km
Cloud details: Few Clouds 1524 m
2019/08/23 11:00 CYYZ 231100Z 02005KT 15SM FEW050 14/11 A3009 RMK SC1 SLP193
CYKF - Waterloo
Updated: 08/23/2019 7:00am
Clear
Clear
 Wind from NW
Wind: NW 7 km/h
Temperature: 10°C
Wind Chill: 9°C
Dew Point: 10°C
Humidity: 100%
Barometer: 1020 hPa
Clouds: Clear
Visibility: 11 km
2019/08/23 11:00 CYKF 231100Z AUTO 32004KT 7SM CLR 10/10 A3012 RMK SLP201
 
CYXU - London
Updated: 08/23/2019 7:00am
Shallow fog, Few clouds
Shallow fog, Few clouds
 Wind from N
Wind: N 6 km/h
Temperature: 11°C
Dew Point: 10°C
Humidity: 94%
Barometer: 1020 hPa
Summary: Shallow Fog
Clouds: Few Clouds
Visibility: 24 km
Cloud details: Few Clouds 914 m
Few Clouds 1372 m
2019/08/23 11:00 CYXU 231100Z 36003KT 15SM MIFG FEW030 FEW045 11/10 A3012 RMK CU1SC1 CU TR SLP203
CYQG - Windsor
Updated: 08/23/2019 7:00am
Clear
Clear
 Wind from NNW
Wind: NNW 9 km/h
Temperature: 14°C
Dew Point: 11°C
Humidity: 82%
Barometer: 1020.3 hPa
Clouds: Clear
Visibility: 14 km
2019/08/23 11:00 CYQG 231100Z AUTO 34005KT 9SM CLR 14/11 A3013 RMK SLP205
 
CYZR - Sarnia
Updated: 08/23/2019 7:00am
Partly cloudy
Partly cloudy
 Wind from SSW
Wind: SSW 7 km/h
Temperature: 12°C
Dew Point: 11°C
Humidity: 94%
Barometer: 1020 hPa
Clouds: Partly cloudy
Visibility: 14 km
Cloud details: Partly cloudy 1981 m
2019/08/23 11:00 CYZR 231100Z AUTO 21004KT 170V230 9SM SCT065 12/11 A3012 RMK SLP201
CYVV - Wiarton
Updated: 08/23/2019 7:00am
Few Clouds
Few Clouds
 Wind from NE
Wind: NE 9 km/h
Temperature: 13°C
Dew Point: 12°C
Humidity: 94%
Barometer: 1020.7 hPa
Clouds: Few Clouds
Visibility: 24 km
Cloud details: Few Clouds 366 m
Few Clouds 1219 m
2019/08/23 11:00 CYVV 231100Z 04005KT 15SM FEW012 FEW040 13/12 A3014 RMK CU1SC1 CU TR SLP208
 
CYPQ - Peterborough
Updated: 08/23/2019 7:00am
Clear
Clear
 Wind from calm
Wind: Calm
Temperature: 9°C
Dew Point: 9°C
Humidity: 100%
Barometer: 1018.6 hPa
Clouds: Clear
Visibility: 14 km
2019/08/23 11:00 CYPQ 231100Z AUTO 00000KT 9SM CLR 09/09 A3008 RMK SLP191
CYTR - Trenton
Updated: 08/23/2019 7:00am
Few Clouds
Few Clouds
 Wind from NW
Wind: NW 4 km/h
Temperature: 11°C
Dew Point: 10°C
Humidity: 94%
Barometer: 1018.3 hPa
Clouds: Few Clouds
Visibility: 24 km
Cloud details: Few Clouds 1524 m
2019/08/23 11:00 CYTR 231100Z 32002KT 15SM FEW050 11/10 A3007 RMK SC1 SLP183